Time;durP1;ratioP1;P1;durP2;ratioP2;P2;SDS_P1;SDS_P2;PMS_P1;PMS_P2;Temp;Humidity;BMP_temperature;BMP_pressure;BME280_temperature;BME280_humidity;BME280_pressure;Samples;Min_cycle;Max_cycle;Signal;HPM_P1;HPM_P2
2022/05/21 00:02:12;;;;;;;17.50;7.70;;;;;;;;;;6175038;23;20219;-89
2022/05/21 00:05:18;;;;;;;13.30;6.80;;;;;;;;;;6173739;23;20462;-89
2022/05/21 00:08:26;;;;;;;18.27;7.18;;;;;;;;;;6175120;23;20179;-89
2022/05/21 00:11:31;;;;;;;16.02;7.07;;;;;;;;;;6175696;23;20702;-89
2022/05/21 00:14:36;;;;;;;13.43;7.13;;;;;;;;;;6179047;23;20390;-89
2022/05/21 00:17:41;;;;;;;11.25;6.80;;;;;;;;;;6176667;23;20179;-90
2022/05/21 00:20:50;;;;;;;14.27;6.90;;;;;;;;;;6187492;23;20148;-89
2022/05/21 00:23:57;;;;;;;15.63;6.78;;;;;;;;;;6193226;23;20224;-88
2022/05/21 00:27:02;;;;;;;20.20;6.13;;;;;;;;;;6186690;23;20175;-89
2022/05/21 00:30:09;;;;;;;12.25;5.50;;;;;;;;;;6175307;23;20324;-89
2022/05/21 00:33:14;;;;;;;14.68;4.85;;;;;;;;;;6174246;23;20188;-89
2022/05/21 00:36:20;;;;;;;11.07;4.93;;;;;;;;;;6174936;23;20176;-89
2022/05/21 00:39:27;;;;;;;11.55;5.10;;;;;;;;;;6174824;23;20263;-89
2022/05/21 00:42:32;;;;;;;13.93;5.93;;;;;;;;;;6174332;23;20172;-89
2022/05/21 00:45:37;;;;;;;11.80;5.10;;;;;;;;;;6174366;23;20312;-89
2022/05/21 00:48:43;;;;;;;12.13;5.35;;;;;;;;;;6174708;23;20226;-89
2022/05/21 00:51:52;;;;;;;12.60;4.70;;;;;;;;;;6174252;23;20249;-89
2022/05/21 00:55:01;;;;;;;12.77;4.47;;;;;;;;;;6174730;23;20204;-89
2022/05/21 01:01:32;;;;;;;9.63;4.00;;;;;;;;;;6184182;23;20164;-88
2022/05/21 01:04:38;;;;;;;9.73;3.95;;;;;;;;;;6191703;23;20220;-88
2022/05/21 01:07:44;;;;;;;15.32;4.53;;;;;;;;;;6188568;23;20172;-87
2022/05/21 01:10:52;;;;;;;16.95;4.82;;;;;;;;;;6185455;23;20203;-87
2022/05/21 01:14:13;;;;;;;21.75;5.15;;;;;;;;;;6188089;23;20429;-87
2022/05/21 01:17:28;;;;;;;13.05;4.63;;;;;;;;;;6183637;23;20547;-88
2022/05/21 01:20:38;;;;;;;13.70;5.03;;;;;;;;;;6186645;23;20177;-88
2022/05/21 01:23:44;;;;;;;12.82;4.65;;;;;;;;;;6188825;23;20453;-87
2022/05/21 01:26:52;;;;;;;8.85;4.55;;;;;;;;;;6184024;23;20175;-89
2022/05/21 01:29:58;;;;;;;15.43;5.10;;;;;;;;;;6179348;23;20171;-90
2022/05/21 01:33:04;;;;;;;11.50;4.97;;;;;;;;;;6184027;23;20171;-90
2022/05/21 01:36:15;;;;;;;15.05;4.97;;;;;;;;;;6179611;23;20168;-89
2022/05/21 01:42:41;;;;;;;13.85;5.40;;;;;;;;;;6181956;23;20180;-90
2022/05/21 01:45:45;;;;;;;20.52;5.20;;;;;;;;;;6183199;23;20531;-90
2022/05/21 01:48:51;;;;;;;12.75;5.50;;;;;;;;;;6187347;23;20195;-90
2022/05/21 01:51:58;;;;;;;20.52;5.65;;;;;;;;;;6185755;23;20192;-89
2022/05/21 01:55:05;;;;;;;15.35;5.00;;;;;;;;;;6185999;23;20207;-89
2022/05/21 01:58:10;;;;;;;16.27;5.63;;;;;;;;;;6182263;23;20172;-90
2022/05/21 02:01:16;;;;;;;16.88;5.68;;;;;;;;;;6179529;23;20236;-90
2022/05/21 02:04:22;;;;;;;12.00;5.25;;;;;;;;;;6175184;23;20175;-90
2022/05/21 02:07:27;;;;;;;15.15;5.88;;;;;;;;;;6176309;23;20413;-89
2022/05/21 02:10:33;;;;;;;11.77;5.03;;;;;;;;;;6176009;23;20199;-90
2022/05/21 02:13:39;;;;;;;9.00;4.88;;;;;;;;;;6194015;23;20193;-89
2022/05/21 02:16:44;;;;;;;8.90;4.90;;;;;;;;;;6193949;23;20152;-90
2022/05/21 02:19:50;;;;;;;18.33;6.07;;;;;;;;;;6194139;23;20180;-91
2022/05/21 02:22:58;;;;;;;15.48;5.53;;;;;;;;;;6194520;23;20168;-90
2022/05/21 02:26:05;;;;;;;12.48;5.32;;;;;;;;;;6194246;23;20160;-90
2022/05/21 02:29:11;;;;;;;11.30;5.32;;;;;;;;;;6194841;23;20158;-89
2022/05/21 02:32:17;;;;;;;12.00;4.78;;;;;;;;;;6194126;23;20211;-90
2022/05/21 02:35:23;;;;;;;12.18;4.60;;;;;;;;;;6193935;23;20215;-90
2022/05/21 02:41:53;;;;;;;13.38;4.90;;;;;;;;;;6174755;23;20208;-90
2022/05/21 02:44:59;;;;;;;14.55;4.88;;;;;;;;;;6174035;23;20202;-90
2022/05/21 02:48:04;;;;;;;11.15;4.78;;;;;;;;;;6174883;23;20624;-90
2022/05/21 02:51:10;;;;;;;10.98;5.03;;;;;;;;;;6174114;23;20195;-90
2022/05/21 02:54:16;;;;;;;13.68;5.20;;;;;;;;;;6174080;23;20171;-91
2022/05/21 02:57:24;;;;;;;9.32;5.07;;;;;;;;;;6174170;23;20179;-90
2022/05/21 03:00:31;;;;;;;12.55;5.35;;;;;;;;;;6173875;23;20175;-90
2022/05/21 03:03:36;;;;;;;15.00;5.25;;;;;;;;;;6174002;23;20304;-89
2022/05/21 03:06:42;;;;;;;10.70;4.30;;;;;;;;;;6172698;23;20254;-90
2022/05/21 03:13:15;;;;;;;11.18;4.53;;;;;;;;;;6175683;23;20176;-90
2022/05/21 03:16:20;;;;;;;11.43;4.30;;;;;;;;;;6173722;23;20532;-90
2022/05/21 03:19:26;;;;;;;9.05;4.80;;;;;;;;;;6173751;23;20180;-90
2022/05/21 03:22:32;;;;;;;7.63;4.13;;;;;;;;;;6174532;23;20172;-90
2022/05/21 03:25:37;;;;;;;10.77;3.95;;;;;;;;;;6173442;23;20404;-90
2022/05/21 03:28:44;;;;;;;14.68;4.15;;;;;;;;;;6175141;23;20176;-90
2022/05/21 03:31:53;;;;;;;11.45;4.00;;;;;;;;;;6176573;23;20203;-88
2022/05/21 03:35:00;;;;;;;9.18;4.07;;;;;;;;;;6176458;23;20452;-90
2022/05/21 03:38:06;;;;;;;8.05;4.50;;;;;;;;;;6178137;23;20171;-90
2022/05/21 03:41:15;;;;;;;11.02;4.32;;;;;;;;;;6179005;23;20292;-91
2022/05/21 03:44:22;;;;;;;8.80;3.80;;;;;;;;;;6190501;23;20192;-90
2022/05/21 03:47:28;;;;;;;8.38;3.72;;;;;;;;;;6187540;23;20212;-88
2022/05/21 03:50:33;;;;;;;8.80;3.67;;;;;;;;;;6190774;23;20228;-88
2022/05/21 03:53:47;;;;;;;9.40;3.60;;;;;;;;;;6188693;23;20184;-89
2022/05/21 03:56:53;;;;;;;8.60;4.20;;;;;;;;;;6189449;23;20184;-88
2022/05/21 04:00:00;;;;;;;7.43;3.65;;;;;;;;;;6176610;23;20176;-89
2022/05/21 04:03:09;;;;;;;6.75;3.45;;;;;;;;;;6176365;23;20241;-89
2022/05/21 04:06:14;;;;;;;6.82;3.70;;;;;;;;;;6175389;23;20191;-89
2022/05/21 04:09:19;;;;;;;8.90;3.30;;;;;;;;;;6175161;23;20292;-90
2022/05/21 04:12:29;;;;;;;6.15;3.42;;;;;;;;;;6193201;23;20195;-90
2022/05/21 04:15:38;;;;;;;7.53;3.63;;;;;;;;;;6175104;23;20415;-90
2022/05/21 04:18:45;;;;;;;7.60;3.50;;;;;;;;;;6175356;23;20171;-90
2022/05/21 04:21:51;;;;;;;9.93;3.90;;;;;;;;;;6175660;23;20167;-89
2022/05/21 04:24:56;;;;;;;13.93;4.30;;;;;;;;;;6174693;23;20227;-90
2022/05/21 04:28:02;;;;;;;11.98;4.00;;;;;;;;;;6175982;23;20215;-90
2022/05/21 04:31:10;;;;;;;9.98;4.07;;;;;;;;;;6175239;23;20389;-90
2022/05/21 04:34:15;;;;;;;11.88;3.53;;;;;;;;;;6175391;23;20176;-90
2022/05/21 04:37:21;;;;;;;7.43;3.70;;;;;;;;;;6175548;23;20559;-90
2022/05/21 04:40:26;;;;;;;12.75;3.97;;;;;;;;;;6175126;23;20183;-90
2022/05/21 04:43:31;;;;;;;7.20;3.60;;;;;;;;;;6175833;23;20210;-90
2022/05/21 04:46:39;;;;;;;15.02;4.13;;;;;;;;;;6177824;23;20176;-90
2022/05/21 04:49:46;;;;;;;8.77;3.70;;;;;;;;;;6178871;23;20524;-90
2022/05/21 04:52:51;;;;;;;11.57;3.60;;;;;;;;;;6179399;23;20196;-89
2022/05/21 04:55:57;;;;;;;8.77;2.95;;;;;;;;;;6193304;23;20211;-90
2022/05/21 04:59:04;;;;;;;5.50;3.30;;;;;;;;;;6183271;23;20172;-89
2022/05/21 05:02:24;;;;;;;8.32;3.70;;;;;;;;;;6183436;23;20247;-89
2022/05/21 05:05:30;;;;;;;10.57;3.88;;;;;;;;;;6179744;23;20192;-88
2022/05/21 05:08:37;;;;;;;10.27;3.55;;;;;;;;;;6177936;23;20459;-88
2022/05/21 05:11:48;;;;;;;6.75;3.15;;;;;;;;;;6178439;23;20192;-89
2022/05/21 05:14:53;;;;;;;9.65;3.00;;;;;;;;;;6177974;23;20191;-87
2022/05/21 05:18:05;;;;;;;7.32;3.03;;;;;;;;;;6176983;23;20183;-88
2022/05/21 05:21:11;;;;;;;4.40;2.85;;;;;;;;;;6179358;23;20176;-87
2022/05/21 05:24:17;;;;;;;9.13;2.95;;;;;;;;;;6181605;23;20178;-88
2022/05/21 05:27:22;;;;;;;7.85;2.97;;;;;;;;;;6177458;23;20187;-88
2022/05/21 05:30:29;;;;;;;6.47;2.65;;;;;;;;;;6177671;23;20176;-89
2022/05/21 05:33:37;;;;;;;7.40;2.72;;;;;;;;;;6176910;23;20179;-89
2022/05/21 05:36:43;;;;;;;10.77;3.00;;;;;;;;;;6177642;23;20218;-88
2022/05/21 05:39:49;;;;;;;7.18;2.70;;;;;;;;;;6174155;23;20171;-87
2022/05/21 05:42:54;;;;;;;5.85;2.75;;;;;;;;;;6177669;23;20191;-88
2022/05/21 05:46:03;;;;;;;6.05;2.95;;;;;;;;;;6177370;23;20518;-88
2022/05/21 05:49:10;;;;;;;10.20;2.72;;;;;;;;;;6177435;23;20539;-88
2022/05/21 05:52:16;;;;;;;4.82;2.50;;;;;;;;;;6177955;23;20238;-88
2022/05/21 05:55:22;;;;;;;6.03;2.50;;;;;;;;;;6186400;23;20207;-89
2022/05/21 06:05:18;;;;;;;5.57;2.60;;;;;;;;;;6178125;23;20243;-88
2022/05/21 06:08:24;;;;;;;9.60;2.67;;;;;;;;;;6178086;23;20176;-89
2022/05/21 06:11:33;;;;;;;5.55;2.67;;;;;;;;;;6176632;23;20183;-88
2022/05/21 06:14:39;;;;;;;5.18;2.58;;;;;;;;;;6177235;23;20225;-87
2022/05/21 06:17:45;;;;;;;7.72;2.72;;;;;;;;;;6176112;23;20196;-87
2022/05/21 06:20:52;;;;;;;7.60;2.53;;;;;;;;;;6175586;23;20179;-87
2022/05/21 06:23:58;;;;;;;4.85;2.60;;;;;;;;;;6176866;23;20180;-87
2022/05/21 06:27:04;;;;;;;6.72;2.65;;;;;;;;;;6175947;23;20214;-88
2022/05/21 06:30:10;;;;;;;6.97;2.50;;;;;;;;;;6177084;23;20180;-88
2022/05/21 06:33:18;;;;;;;5.95;2.50;;;;;;;;;;6174911;23;20195;-88
2022/05/21 06:36:27;;;;;;;6.97;2.30;;;;;;;;;;6174915;23;20180;-87
2022/05/21 06:39:32;;;;;;;6.28;2.20;;;;;;;;;;6174418;23;20172;-88
2022/05/21 06:42:37;;;;;;;4.88;2.33;;;;;;;;;;6192122;23;20308;-87
2022/05/21 06:45:43;;;;;;;7.45;2.28;;;;;;;;;;6176910;23;20248;-87
2022/05/21 06:48:50;;;;;;;6.85;2.05;;;;;;;;;;6175477;23;20171;-88
2022/05/21 06:51:59;;;;;;;3.47;1.90;;;;;;;;;;6175591;23;20612;-88
2022/05/21 06:55:08;;;;;;;4.63;2.10;;;;;;;;;;6177755;23;20587;-89
2022/05/21 06:58:22;;;;;;;4.65;2.25;;;;;;;;;;6178497;23;20251;-87
2022/05/21 07:01:29;;;;;;;4.53;2.20;;;;;;;;;;6184563;23;20172;-87
2022/05/21 07:08:00;;;;;;;4.85;2.10;;;;;;;;;;6187729;23;20195;-88
2022/05/21 07:11:06;;;;;;;5.97;2.17;;;;;;;;;;6183705;23;20183;-88
2022/05/21 07:14:16;;;;;;;12.68;2.15;;;;;;;;;;6184050;23;20215;-88
2022/05/21 07:17:22;;;;;;;4.70;1.92;;;;;;;;;;6179962;23;20187;-89
2022/05/21 07:20:29;;;;;;;4.97;1.98;;;;;;;;;;6178028;23;20180;-88
2022/05/21 07:23:36;;;;;;;6.25;1.95;;;;;;;;;;6177829;23;20172;-87
2022/05/21 07:26:46;;;;;;;4.80;1.88;;;;;;;;;;6176740;23;20179;-88
2022/05/21 07:29:51;;;;;;;5.88;2.00;;;;;;;;;;6176007;23;20341;-88
2022/05/21 07:32:59;;;;;;;3.33;2.28;;;;;;;;;;6176063;23;20603;-88
2022/05/21 07:36:06;;;;;;;4.90;2.00;;;;;;;;;;6177895;23;20175;-87
2022/05/21 07:39:40;;;;;;;6.85;2.10;;;;;;;;;;6179578;23;20175;-86
2022/05/21 07:42:57;;;;;;;2.53;1.70;;;;;;;;;;6180731;23;20276;-88
2022/05/21 07:46:07;;;;;;;6.18;1.92;;;;;;;;;;6178231;23;20456;-87
2022/05/21 20:11:06;;;;;;;3.88;1.50;;;;;;;;;;6200391;23;20212;-86
2022/05/21 20:14:12;;;;;;;4.60;1.67;;;;;;;;;;6222763;23;20475;-86
2022/05/21 20:17:19;;;;;;;2.63;1.50;;;;;;;;;;6223354;23;20199;-86
2022/05/21 20:20:25;;;;;;;7.47;2.13;;;;;;;;;;6222830;23;20547;-86
2022/05/21 20:23:30;;;;;;;3.17;1.55;;;;;;;;;;6223485;23;20170;-86
2022/05/21 20:26:38;;;;;;;5.78;1.60;;;;;;;;;;6204309;23;20190;-87
2022/05/21 20:29:46;;;;;;;4.93;1.38;;;;;;;;;;6223022;23;20414;-86
2022/05/21 20:32:52;;;;;;;6.43;1.80;;;;;;;;;;6222269;23;20246;-85
2022/05/21 20:36:00;;;;;;;2.22;1.42;;;;;;;;;;6222315;23;20486;-86
2022/05/21 20:39:04;;;;;;;5.82;1.95;;;;;;;;;;6221277;23;20170;-89
2022/05/21 20:42:12;;;;;;;3.80;1.70;;;;;;;;;;6189164;23;20183;-86
2022/05/21 20:45:18;;;;;;;10.43;1.88;;;;;;;;;;6222688;23;20232;-87
2022/05/21 20:51:48;;;;;;;6.65;2.90;;;;;;;;;;6222784;23;20444;-86
2022/05/21 20:54:53;;;;;;;4.07;2.00;;;;;;;;;;6204404;23;20218;-87
2022/05/21 20:58:00;;;;;;;8.55;2.53;;;;;;;;;;6222517;23;20174;-87
2022/05/21 21:01:08;;;;;;;5.72;1.75;;;;;;;;;;6221730;23;20175;-87
2022/05/21 21:04:14;;;;;;;7.35;3.10;;;;;;;;;;6223083;23;20198;-87
2022/05/21 21:07:20;;;;;;;11.73;3.17;;;;;;;;;;6195551;23;20251;-87
2022/05/21 21:10:26;;;;;;;4.25;1.73;;;;;;;;;;6174501;23;20191;-87
2022/05/21 21:13:33;;;;;;;5.78;1.60;;;;;;;;;;6187801;23;20226;-86
2022/05/21 21:16:39;;;;;;;3.92;1.70;;;;;;;;;;6207213;23;20547;-86
2022/05/21 21:19:45;;;;;;;6.10;1.45;;;;;;;;;;6184299;23;20176;-88
2022/05/21 21:22:53;;;;;;;5.32;1.80;;;;;;;;;;6181469;23;20248;-86
2022/05/21 21:25:59;;;;;;;7.70;2.05;;;;;;;;;;6176754;23;20457;-86
2022/05/21 21:29:08;;;;;;;4.22;1.90;;;;;;;;;;6175369;23;20188;-86
2022/05/21 21:32:14;;;;;;;7.13;2.25;;;;;;;;;;6175445;23;20587;-88
2022/05/21 21:35:20;;;;;;;3.25;1.90;;;;;;;;;;6176002;23;20210;-88
2022/05/21 21:38:26;;;;;;;5.10;2.25;;;;;;;;;;6175465;23;20171;-87
2022/05/21 21:41:32;;;;;;;4.95;2.03;;;;;;;;;;6174836;23;20168;-87
2022/05/21 21:44:39;;;;;;;3.95;1.80;;;;;;;;;;6174361;23;20172;-87
2022/05/21 21:47:45;;;;;;;7.07;2.50;;;;;;;;;;6191495;23;20176;-85
2022/05/21 21:50:51;;;;;;;4.03;2.00;;;;;;;;;;6173775;23;20175;-86
2022/05/21 21:53:56;;;;;;;6.43;2.17;;;;;;;;;;6174506;23;20195;-87
2022/05/21 21:57:01;;;;;;;10.30;2.75;;;;;;;;;;6173444;23;20176;-86
2022/05/21 22:04:02;;;;;;;4.97;2.10;;;;;;;;;;6173235;23;20464;-87
2022/05/21 22:07:08;;;;;;;3.85;2.10;;;;;;;;;;6173085;23;20242;-87
2022/05/21 22:10:13;;;;;;;4.18;2.00;;;;;;;;;;6173322;23;20195;-87
2022/05/21 22:13:18;;;;;;;5.55;1.92;;;;;;;;;;6177092;23;20198;-87
2022/05/21 22:16:26;;;;;;;3.42;2.08;;;;;;;;;;6200610;23;20597;-85
2022/05/21 22:19:31;;;;;;;3.30;1.90;;;;;;;;;;6183126;23;20212;-86
2022/05/21 22:22:37;;;;;;;4.75;2.20;;;;;;;;;;6200139;23;20168;-86
2022/05/21 22:25:42;;;;;;;4.30;1.98;;;;;;;;;;6183122;23;20219;-86
2022/05/21 22:28:49;;;;;;;6.88;2.20;;;;;;;;;;6179005;23;20171;-85
2022/05/21 22:31:56;;;;;;;7.32;3.10;;;;;;;;;;6180458;23;20244;-86
2022/05/21 22:35:03;;;;;;;9.15;2.22;;;;;;;;;;6175793;23;20203;-86
2022/05/21 22:38:08;;;;;;;7.22;3.78;;;;;;;;;;6182628;23;20176;-85
2022/05/21 22:41:15;;;;;;;5.75;2.33;;;;;;;;;;6190885;23;20168;-86
2022/05/21 22:44:22;;;;;;;5.90;2.00;;;;;;;;;;6173821;23;20172;-87
2022/05/21 22:47:31;;;;;;;3.95;2.30;;;;;;;;;;6173919;23;20175;-87
2022/05/21 22:50:36;;;;;;;7.03;2.20;;;;;;;;;;6173712;23;20203;-87
2022/05/21 22:53:42;;;;;;;6.30;2.40;;;;;;;;;;6174163;23;20282;-87
2022/05/21 22:56:52;;;;;;;4.85;2.65;;;;;;;;;;6174825;23;20171;-87
2022/05/21 23:00:00;;;;;;;5.47;2.03;;;;;;;;;;6198704;23;20179;-87
2022/05/21 23:03:06;;;;;;;3.47;1.98;;;;;;;;;;6178976;23;20179;-87
2022/05/21 23:06:13;;;;;;;3.97;2.03;;;;;;;;;;6196460;23;20203;-87
2022/05/21 23:09:19;;;;;;;4.38;1.90;;;;;;;;;;6179227;23;20179;-88
2022/05/21 23:12:24;;;;;;;9.10;2.50;;;;;;;;;;6180330;23;20172;-88
2022/05/21 23:18:55;;;;;;;4.57;2.15;;;;;;;;;;6192449;23;20172;-88
2022/05/21 23:25:24;;;;;;;3.95;1.90;;;;;;;;;;6193771;23;20203;-89
2022/05/21 23:28:30;;;;;;;4.20;1.60;;;;;;;;;;6194062;23;20151;-87
2022/05/21 23:31:36;;;;;;;3.40;1.63;;;;;;;;;;6194504;23;20171;-88
2022/05/21 23:34:44;;;;;;;6.25;2.03;;;;;;;;;;6212144;23;20186;-86
2022/05/21 23:37:51;;;;;;;8.70;2.30;;;;;;;;;;6212433;23;20156;-86
2022/05/21 23:40:58;;;;;;;5.95;2.25;;;;;;;;;;6211241;23;20176;-86
2022/05/21 23:44:07;;;;;;;5.82;2.40;;;;;;;;;;6182211;23;20184;-87
2022/05/21 23:47:15;;;;;;;4.82;1.98;;;;;;;;;;6177438;23;20291;-87
2022/05/21 23:50:22;;;;;;;6.97;2.28;;;;;;;;;;6177928;23;20211;-88
2022/05/21 23:53:28;;;;;;;5.68;2.30;;;;;;;;;;6175779;23;20282;-88
2022/05/21 23:56:33;;;;;;;3.85;2.00;;;;;;;;;;6175061;23;20175;-88
2022/05/21 23:59:41;;;;;;;7.85;2.05;;;;;;;;;;6199923;23;20172;-86
